Time;durP1;ratioP1;P1;durP2;ratioP2;P2;SDS_P1;SDS_P2;PMS_P1;PMS_P2;Temp;Humidity;BMP_temperature;BMP_pressure;BME280_temperature;BME280_humidity;BME280_pressure;Samples;Min_cycle;Max_cycle;Signal;HPM_P1;HPM_P2
2023/09/03 00:00:41;;;;;;;10.40;7.67;;;16.50;99.90;;;;;;4192799;28;20227;-79
2023/09/03 00:02:43;;;;;;;11.10;7.77;;;16.50;99.90;;;;;;4194364;28;20211;-78
2023/09/03 00:04:46;;;;;;;14.43;8.20;;;16.40;99.90;;;;;;4199728;28;20240;-79
2023/09/03 00:06:48;;;;;;;11.07;8.43;;;16.40;99.90;;;;;;4189373;28;20221;-79
2023/09/03 00:08:50;;;;;;;14.20;9.80;;;16.40;99.90;;;;;;4192597;28;20208;-79
2023/09/03 00:10:52;;;;;;;14.07;9.40;;;16.40;99.90;;;;;;4185138;28;20225;-79
2023/09/03 00:12:53;;;;;;;15.27;10.00;;;16.40;99.90;;;;;;4194879;28;20207;-79
2023/09/03 00:14:55;;;;;;;11.17;8.97;;;16.40;99.90;;;;;;4194407;28;20606;-79
2023/09/03 00:16:56;;;;;;;12.63;8.77;;;16.40;99.90;;;;;;4196431;28;20211;-79
2023/09/03 00:18:58;;;;;;;12.17;8.60;;;16.40;99.90;;;;;;4196713;28;20249;-78
2023/09/03 00:21:03;;;;;;;13.53;8.97;;;16.40;99.90;;;;;;4193127;28;20272;-78
2023/09/03 00:23:06;;;;;;;10.70;7.87;;;16.40;99.90;;;;;;4188403;28;20203;-79
2023/09/03 00:25:08;;;;;;;11.63;8.77;;;16.30;99.90;;;;;;4197525;28;20265;-79
2023/09/03 00:27:10;;;;;;;11.00;8.57;;;16.30;99.90;;;;;;4194053;28;20213;-79
2023/09/03 00:29:12;;;;;;;13.60;8.50;;;16.30;99.90;;;;;;4195401;28;20268;-78
2023/09/03 00:31:13;;;;;;;11.33;8.40;;;16.30;99.90;;;;;;4188741;28;20236;-79
2023/09/03 00:33:15;;;;;;;11.10;7.97;;;16.30;99.90;;;;;;4192094;28;20200;-78
2023/09/03 00:35:18;;;;;;;10.20;7.37;;;16.30;99.90;;;;;;4189833;28;20576;-78
2023/09/03 00:37:21;;;;;;;11.33;7.83;;;16.30;99.90;;;;;;4190306;28;20265;-79
2023/09/03 00:39:23;;;;;;;10.77;8.03;;;16.30;99.90;;;;;;4198624;28;20233;-79
2023/09/03 00:41:25;;;;;;;10.57;8.07;;;16.30;99.90;;;;;;4191855;28;20232;-79
2023/09/03 00:43:28;;;;;;;10.33;8.27;;;16.30;99.90;;;;;;4199364;28;20203;-79
2023/09/03 00:45:30;;;;;;;10.20;8.10;;;16.20;99.90;;;;;;4185775;28;20213;-79
2023/09/03 00:47:32;;;;;;;10.57;8.00;;;16.20;99.90;;;;;;4199733;28;20276;-79
2023/09/03 00:49:40;;;;;;;12.00;8.13;;;16.20;99.90;;;;;;4199160;28;20677;-79
2023/09/03 00:51:42;;;;;;;12.23;7.47;;;16.20;99.90;;;;;;4187462;28;20295;-78
2023/09/03 00:53:52;;;;;;;10.90;8.17;;;16.20;99.90;;;;;;4192449;28;20204;-79
2023/09/03 00:55:54;;;;;;;11.17;7.50;;;16.20;99.90;;;;;;4191497;28;20776;-79
2023/09/03 00:57:56;;;;;;;10.97;8.10;;;16.20;99.90;;;;;;4192942;28;20212;-79
2023/09/03 00:59:59;;;;;;;12.37;7.53;;;16.20;99.90;;;;;;4193530;28;20828;-79
2023/09/03 01:02:01;;;;;;;13.23;7.93;;;16.20;99.90;;;;;;4189224;28;20317;-77
2023/09/03 01:04:03;;;;;;;16.13;9.57;;;16.20;99.90;;;;;;4194380;28;20855;-77
2023/09/03 01:06:06;;;;;;;14.17;10.10;;;16.20;99.90;;;;;;4191651;28;20729;-78
2023/09/03 01:08:08;;;;;;;14.40;9.90;;;16.20;99.90;;;;;;4189752;28;20215;-78
2023/09/03 01:10:12;;;;;;;14.60;9.73;;;16.20;99.90;;;;;;4192839;28;20614;-78
2023/09/03 01:12:20;;;;;;;14.20;10.07;;;16.30;99.90;;;;;;4195987;28;20204;-78
2023/09/03 01:14:29;;;;;;;14.37;9.27;;;16.20;99.90;;;;;;4191962;28;20253;-77
2023/09/03 01:16:34;;;;;;;14.70;9.20;;;16.20;99.90;;;;;;4192519;28;20190;-77
2023/09/03 01:18:39;;;;;;;14.23;10.20;;;16.20;99.90;;;;;;4189828;28;20241;-77
2023/09/03 01:20:45;;;;;;;11.83;9.20;;;16.10;99.90;;;;;;4200072;28;20306;-77
2023/09/03 01:23:15;;;;;;;12.73;9.40;;;16.10;99.90;;;;;;4192091;28;20204;-77
2023/09/03 01:25:45;;;;;;;14.30;10.07;;;16.10;99.90;;;;;;4193944;28;20227;-78
2023/09/03 01:27:56;;;;;;;13.20;10.30;;;16.20;99.90;;;;;;4176853;28;20217;-78
2023/09/03 01:29:59;;;;;;;16.63;12.27;;;16.20;99.90;;;;;;4198944;28;20202;-77
2023/09/03 01:32:03;;;;;;;16.37;11.50;;;16.20;99.90;;;;;;4203291;28;20235;-77
2023/09/03 01:34:05;;;;;;;15.87;11.43;;;16.20;99.90;;;;;;4203975;28;20216;-77
2023/09/03 01:36:09;;;;;;;18.57;11.57;;;16.20;99.90;;;;;;4188875;28;20212;-78
2023/09/03 01:38:11;;;;;;;15.30;11.20;;;16.10;99.90;;;;;;4198866;28;20685;-78
2023/09/03 01:40:13;;;;;;;15.73;11.20;;;16.10;99.90;;;;;;4195150;28;20613;-78
2023/09/03 01:42:15;;;;;;;14.37;10.43;;;16.10;99.90;;;;;;4191360;28;20580;-77
2023/09/03 01:44:17;;;;;;;15.50;11.23;;;16.00;99.90;;;;;;4191439;28;20315;-77
2023/09/03 01:46:24;;;;;;;17.97;11.20;;;16.00;99.90;;;;;;4197024;28;20745;-77
2023/09/03 01:48:35;;;;;;;19.43;12.77;;;16.00;99.90;;;;;;4193236;28;20255;-77
2023/09/03 01:50:44;;;;;;;17.03;11.80;;;16.00;99.90;;;;;;4194711;28;20227;-77
2023/09/03 01:52:53;;;;;;;17.20;11.83;;;16.00;99.90;;;;;;4201145;28;20257;-78
2023/09/03 01:55:00;;;;;;;17.70;12.27;;;15.90;99.90;;;;;;4193592;28;20877;-78
2023/09/03 01:57:06;;;;;;;16.83;11.20;;;15.90;99.90;;;;;;4196341;28;20661;-77
2023/09/03 01:59:17;;;;;;;14.60;10.00;;;15.90;99.90;;;;;;4195806;28;20265;-78
2023/09/03 02:01:21;;;;;;;14.10;9.97;;;15.90;99.90;;;;;;4192565;28;20312;-77
2023/09/03 02:03:27;;;;;;;15.67;9.63;;;15.90;99.90;;;;;;4187028;28;20691;-77
2023/09/03 02:05:28;;;;;;;12.77;9.27;;;15.80;99.90;;;;;;4188257;28;20218;-77
2023/09/03 02:07:30;;;;;;;13.00;9.23;;;15.80;99.90;;;;;;4187701;28;20889;-77
2023/09/03 02:09:31;;;;;;;12.17;9.43;;;15.80;99.90;;;;;;4190543;28;20202;-77
2023/09/03 02:11:33;;;;;;;12.77;9.60;;;15.80;99.90;;;;;;4187805;28;20257;-78
2023/09/03 02:13:35;;;;;;;12.43;9.13;;;15.80;99.90;;;;;;4187314;28;20210;-77
2023/09/03 02:15:37;;;;;;;15.67;10.20;;;15.80;99.90;;;;;;4189753;28;20198;-77
2023/09/03 02:17:40;;;;;;;13.27;10.10;;;15.80;99.90;;;;;;4193834;28;20206;-77
2023/09/03 02:19:42;;;;;;;20.10;9.97;;;15.80;99.90;;;;;;4198012;28;20218;-77
2023/09/03 02:21:43;;;;;;;15.90;10.17;;;15.80;99.90;;;;;;4197644;28;20222;-77
2023/09/03 02:23:45;;;;;;;14.10;10.13;;;15.70;99.90;;;;;;4196498;28;20198;-77
2023/09/03 02:25:47;;;;;;;16.63;11.20;;;15.70;99.90;;;;;;4196005;28;20795;-77
2023/09/03 02:27:49;;;;;;;12.63;9.70;;;15.70;99.90;;;;;;4192722;28;20770;-77
2023/09/03 02:29:51;;;;;;;13.93;9.67;;;15.70;99.90;;;;;;4197688;28;20261;-77
2023/09/03 02:31:53;;;;;;;12.77;9.17;;;15.70;99.90;;;;;;4197461;28;20229;-77
2023/09/03 02:33:55;;;;;;;12.80;9.53;;;15.60;99.90;;;;;;4189855;28;20206;-77
2023/09/03 02:35:57;;;;;;;13.80;10.00;;;15.50;99.90;;;;;;4204926;28;20252;-77
2023/09/03 02:37:59;;;;;;;14.47;10.03;;;15.60;99.90;;;;;;4199483;28;20340;-77
2023/09/03 02:40:01;;;;;;;15.60;10.43;;;15.60;99.90;;;;;;4195827;28;20740;-77
2023/09/03 02:42:03;;;;;;;15.07;9.33;;;15.50;99.90;;;;;;4191824;28;20281;-77
2023/09/03 02:44:07;;;;;;;13.57;9.90;;;15.50;99.90;;;;;;4199428;28;20692;-77
2023/09/03 02:46:09;;;;;;;13.77;9.63;;;15.50;99.90;;;;;;4194607;28;20215;-77
2023/09/03 02:48:11;;;;;;;11.40;9.10;;;15.50;99.90;;;;;;4190744;28;20570;-77
2023/09/03 02:50:14;;;;;;;12.73;9.53;;;15.50;99.90;;;;;;4196953;28;20208;-77
2023/09/03 02:52:16;;;;;;;11.67;9.03;;;15.50;99.90;;;;;;4192857;28;20241;-77
2023/09/03 02:54:18;;;;;;;13.50;9.50;;;15.50;99.90;;;;;;4196552;28;20206;-77
2023/09/03 02:56:20;;;;;;;13.27;9.00;;;15.40;99.90;;;;;;4199540;28;20214;-77
2023/09/03 02:58:22;;;;;;;12.83;9.23;;;15.40;99.90;;;;;;4191601;28;20907;-77
2023/09/03 03:00:25;;;;;;;12.47;9.07;;;15.40;99.90;;;;;;4191121;28;20284;-77
2023/09/03 03:02:29;;;;;;;11.83;8.70;;;15.40;99.90;;;;;;4194520;28;20194;-79
2023/09/03 03:04:31;;;;;;;15.57;9.27;;;15.40;99.90;;;;;;4196063;28;20240;-79
2023/09/03 03:06:34;;;;;;;11.60;8.40;;;15.30;99.90;;;;;;4191139;28;20207;-78
2023/09/03 03:08:36;;;;;;;11.60;8.53;;;15.40;99.90;;;;;;4193599;28;20263;-79
2023/09/03 03:10:38;;;;;;;13.63;8.87;;;15.30;99.90;;;;;;4193603;28;20971;-79
2023/09/03 03:12:44;;;;;;;13.07;9.10;;;15.30;99.90;;;;;;4192018;28;20264;-78
2023/09/03 03:14:46;;;;;;;13.37;8.90;;;15.30;99.90;;;;;;4197554;28;21142;-78
2023/09/03 03:16:48;;;;;;;12.17;8.67;;;15.30;99.90;;;;;;4199428;28;20211;-78
2023/09/03 03:18:50;;;;;;;11.27;8.43;;;15.30;99.90;;;;;;4199713;28;20207;-78
2023/09/03 03:20:55;;;;;;;11.53;8.00;;;15.30;99.90;;;;;;4198325;28;20276;-78
2023/09/03 03:22:59;;;;;;;11.97;8.77;;;15.30;99.90;;;;;;4196184;28;20226;-77
2023/09/03 03:25:01;;;;;;;12.77;9.17;;;15.30;99.90;;;;;;4197286;28;20651;-77
2023/09/03 03:27:04;;;;;;;14.07;9.90;;;15.30;99.90;;;;;;4188768;28;20213;-78
2023/09/03 03:29:07;;;;;;;12.67;9.13;;;15.10;99.90;;;;;;4194892;28;20322;-78
2023/09/03 03:31:10;;;;;;;13.80;8.60;;;15.30;99.90;;;;;;4196897;28;20236;-77
2023/09/03 03:33:12;;;;;;;12.27;8.97;;;15.30;99.90;;;;;;4201926;28;20241;-78
2023/09/03 03:35:14;;;;;;;11.80;8.37;;;15.30;99.90;;;;;;4199447;28;20220;-77
2023/09/03 03:37:16;;;;;;;13.77;8.90;;;15.20;99.90;;;;;;4201920;28;20220;-77
2023/09/03 03:39:20;;;;;;;12.50;8.53;;;15.20;99.90;;;;;;4194597;28;20202;-78
2023/09/03 03:41:22;;;;;;;13.40;9.60;;;15.30;99.90;;;;;;4193875;28;20271;-78
2023/09/03 03:43:24;;;;;;;13.80;8.83;;;15.20;99.90;;;;;;4197182;28;20204;-78
2023/09/03 03:45:26;;;;;;;13.77;9.40;;;15.20;99.90;;;;;;4197586;28;20629;-78
2023/09/03 03:47:27;;;;;;;15.17;9.83;;;15.20;99.90;;;;;;4196407;28;20263;-78
2023/09/03 03:49:29;;;;;;;13.53;10.17;;;15.20;99.90;;;;;;4198911;28;20210;-78
2023/09/03 03:51:31;;;;;;;15.67;9.67;;;15.20;99.90;;;;;;4197503;28;20221;-78
2023/09/03 03:53:33;;;;;;;11.83;8.93;;;15.20;99.90;;;;;;4196509;28;20280;-78
2023/09/03 03:55:36;;;;;;;14.13;8.90;;;15.20;99.90;;;;;;4199158;28;20198;-78
2023/09/03 03:57:37;;;;;;;17.00;10.60;;;15.20;99.90;;;;;;4201401;28;20223;-78
2023/09/03 03:59:40;;;;;;;15.93;9.47;;;15.20;99.90;;;;;;4200137;28;20253;-78
2023/09/03 04:01:40;;;;;;;18.77;11.37;;;15.20;99.90;;;;;;4203466;28;20213;-78
2023/09/03 04:03:43;;;;;;;12.70;9.37;;;15.20;99.90;;;;;;4197129;28;20843;-77
2023/09/03 04:05:45;;;;;;;14.53;9.70;;;15.10;99.90;;;;;;4190935;28;20725;-77
2023/09/03 04:07:47;;;;;;;17.40;10.70;;;15.20;99.90;;;;;;4193291;28;20219;-77
2023/09/03 04:09:49;;;;;;;15.47;9.47;;;15.10;99.90;;;;;;4189836;28;20219;-77
2023/09/03 04:11:52;;;;;;;14.67;10.87;;;15.10;99.90;;;;;;4191668;28;20263;-77
2023/09/03 04:13:53;;;;;;;14.13;10.20;;;15.10;99.90;;;;;;4189810;28;20210;-77
2023/09/03 04:15:55;;;;;;;13.63;10.00;;;15.10;99.90;;;;;;4194411;28;20197;-78
2023/09/03 04:17:57;;;;;;;13.97;10.47;;;15.10;99.90;;;;;;4189800;28;20202;-78
2023/09/03 04:19:59;;;;;;;15.80;10.33;;;15.10;99.90;;;;;;4189493;28;20209;-77
2023/09/03 04:22:01;;;;;;;15.43;11.10;;;15.10;99.90;;;;;;4192903;28;20230;-78
2023/09/03 04:24:03;;;;;;;15.40;10.63;;;15.00;99.90;;;;;;4185482;28;20280;-77
2023/09/03 04:26:05;;;;;;;18.80;10.83;;;15.00;99.90;;;;;;4188372;28;20211;-77
2023/09/03 04:28:09;;;;;;;14.93;10.30;;;15.00;99.90;;;;;;4195897;28;20217;-78
2023/09/03 04:30:12;;;;;;;17.20;11.63;;;15.10;99.90;;;;;;4191823;28;20213;-77
2023/09/03 04:32:14;;;;;;;15.93;11.13;;;15.00;99.90;;;;;;4188009;28;20194;-78
2023/09/03 04:34:16;;;;;;;15.10;10.47;;;15.00;99.90;;;;;;4188532;28;20217;-78
2023/09/03 04:36:18;;;;;;;19.97;12.43;;;15.00;99.90;;;;;;4194688;28;20214;-77
2023/09/03 04:38:20;;;;;;;15.70;10.73;;;15.00;99.90;;;;;;4191708;28;20236;-77
2023/09/03 04:40:22;;;;;;;17.13;11.17;;;15.00;99.90;;;;;;4188855;28;20206;-78
2023/09/03 04:42:24;;;;;;;16.10;11.03;;;15.00;99.90;;;;;;4190490;28;20222;-78
2023/09/03 04:44:27;;;;;;;16.23;11.27;;;15.10;99.90;;;;;;4192631;28;20626;-78
2023/09/03 04:46:29;;;;;;;16.07;10.30;;;15.10;99.90;;;;;;4192608;28;20210;-77
2023/09/03 04:48:31;;;;;;;15.07;10.10;;;15.10;99.90;;;;;;4192845;28;20253;-79
2023/09/03 04:50:33;;;;;;;15.23;10.20;;;15.10;99.90;;;;;;4197012;28;20225;-78
2023/09/03 04:52:35;;;;;;;12.63;9.83;;;15.20;99.90;;;;;;4191943;28;20201;-78
2023/09/03 04:54:37;;;;;;;14.80;10.53;;;15.20;99.90;;;;;;4190757;28;20218;-78
2023/09/03 04:56:39;;;;;;;15.00;10.20;;;15.20;99.90;;;;;;4191008;28;20256;-78
2023/09/03 04:58:41;;;;;;;15.77;9.77;;;15.20;99.90;;;;;;4193542;28;20737;-78
2023/09/03 05:00:45;;;;;;;13.30;9.73;;;15.20;99.90;;;;;;4196621;28;20275;-78
2023/09/03 05:02:46;;;;;;;15.00;10.37;;;15.20;99.90;;;;;;4195725;28;20240;-78
2023/09/03 05:04:48;;;;;;;12.20;9.23;;;15.20;99.90;;;;;;4189798;28;20198;-78
2023/09/03 05:06:50;;;;;;;13.67;8.77;;;15.30;99.90;;;;;;4188533;28;20203;-78
2023/09/03 05:08:51;;;;;;;15.13;10.03;;;15.30;99.90;;;;;;4196347;28;20205;-78
2023/09/03 05:10:53;;;;;;;19.47;11.17;;;15.20;99.90;;;;;;4194540;28;20260;-78
2023/09/03 05:12:55;;;;;;;17.23;10.83;;;15.30;99.90;;;;;;4192731;28;20761;-78
2023/09/03 05:14:56;;;;;;;15.40;10.23;;;15.30;99.90;;;;;;4186135;28;21116;-78
2023/09/03 05:16:59;;;;;;;14.83;10.83;;;15.40;99.90;;;;;;4191225;28;20204;-78
2023/09/03 05:19:04;;;;;;;12.83;9.47;;;15.40;99.90;;;;;;4188102;28;20200;-78
2023/09/03 05:21:08;;;;;;;14.87;10.43;;;15.40;99.90;;;;;;4191228;28;20267;-78
2023/09/03 05:23:10;;;;;;;14.70;10.17;;;15.40;99.90;;;;;;4192096;28;20237;-76
2023/09/03 05:25:11;;;;;;;17.43;10.97;;;15.40;99.90;;;;;;4191421;28;20670;-77
2023/09/03 05:27:13;;;;;;;17.40;10.27;;;15.50;99.90;;;;;;4194780;28;20271;-77
2023/09/03 05:29:15;;;;;;;16.53;10.93;;;15.50;99.90;;;;;;4186947;28;20258;-77
2023/09/03 05:31:17;;;;;;;18.13;10.87;;;15.50;99.90;;;;;;4192121;28;20817;-77
2023/09/03 05:33:19;;;;;;;18.40;10.53;;;15.50;99.90;;;;;;4190596;28;20206;-77
2023/09/03 05:35:21;;;;;;;13.77;9.43;;;15.50;99.90;;;;;;4191065;28;20623;-77
2023/09/03 05:37:23;;;;;;;14.47;9.70;;;15.50;99.90;;;;;;4191765;28;20212;-77
2023/09/03 05:39:26;;;;;;;12.73;8.73;;;15.50;99.90;;;;;;4191888;28;20215;-78
2023/09/03 05:41:28;;;;;;;13.47;9.13;;;15.60;99.90;;;;;;4196882;28;20226;-77
2023/09/03 05:43:29;;;;;;;13.93;8.87;;;15.60;99.90;;;;;;4196719;28;20656;-78
2023/09/03 05:45:31;;;;;;;12.67;9.23;;;15.50;99.90;;;;;;4195951;28;20258;-77
2023/09/03 05:47:33;;;;;;;10.67;8.43;;;15.50;99.90;;;;;;4191734;28;20209;-77
2023/09/03 05:49:36;;;;;;;13.00;9.13;;;15.50;99.90;;;;;;4188430;28;20569;-77
2023/09/03 05:51:38;;;;;;;13.10;8.23;;;15.50;99.90;;;;;;4188806;28;20272;-77
2023/09/03 05:53:40;;;;;;;11.50;7.83;;;15.50;99.90;;;;;;4191811;28;20211;-77
2023/09/03 05:55:42;;;;;;;11.87;7.83;;;15.50;99.90;;;;;;4189277;28;20787;-77
2023/09/03 05:57:44;;;;;;;10.17;7.80;;;15.50;99.90;;;;;;4191525;28;20745;-76
2023/09/03 05:59:50;;;;;;;10.23;7.30;;;15.50;99.90;;;;;;4192394;28;20206;-77
2023/09/03 06:01:52;;;;;;;13.40;8.10;;;15.50;99.90;;;;;;4191715;28;20285;-78
2023/09/03 06:03:54;;;;;;;10.10;7.67;;;15.60;99.90;;;;;;4201362;28;20238;-77
2023/09/03 06:06:01;;;;;;;12.40;7.50;;;15.60;99.90;;;;;;4197528;28;20240;-77
2023/09/03 06:08:03;;;;;;;10.73;7.53;;;15.60;99.90;;;;;;4195845;28;20619;-78
2023/09/03 06:10:04;;;;;;;9.87;6.90;;;15.70;99.90;;;;;;4191288;28;20246;-78
2023/09/03 06:12:07;;;;;;;11.00;7.47;;;15.70;99.90;;;;;;4195033;28;20186;-79
2023/09/03 06:14:09;;;;;;;12.03;7.70;;;15.80;99.90;;;;;;4198273;28;20215;-77
2023/09/03 06:16:11;;;;;;;11.87;7.50;;;15.80;99.90;;;;;;4183578;28;20248;-77
2023/09/03 06:18:13;;;;;;;11.27;6.90;;;15.90;99.90;;;;;;4188341;28;20213;-77
2023/09/03 06:20:15;;;;;;;10.03;7.10;;;15.80;99.90;;;;;;4193633;28;20256;-77
2023/09/03 06:22:18;;;;;;;12.10;7.20;;;15.90;99.90;;;;;;4198172;28;20909;-77
2023/09/03 06:24:20;;;;;;;11.83;7.00;;;15.90;99.90;;;;;;4189735;28;20214;-77
2023/09/03 06:26:22;;;;;;;14.33;8.23;;;15.90;99.90;;;;;;4192933;28;20260;-77
2023/09/03 06:28:26;;;;;;;10.73;7.00;;;16.00;99.90;;;;;;4190341;28;20205;-77
2023/09/03 06:30:28;;;;;;;9.83;6.83;;;16.00;99.90;;;;;;4193900;28;20223;-76
2023/09/03 06:32:30;;;;;;;12.23;7.23;;;16.10;99.90;;;;;;4192119;28;20206;-76
2023/09/03 06:34:32;;;;;;;8.20;6.17;;;16.10;99.90;;;;;;4196821;28;20214;-76
2023/09/03 06:36:34;;;;;;;7.80;6.30;;;16.20;99.90;;;;;;4195859;28;20261;-76
2023/09/03 06:38:39;;;;;;;8.83;6.43;;;16.20;99.90;;;;;;4194128;28;20197;-76
2023/09/03 06:40:40;;;;;;;10.80;6.80;;;16.30;99.90;;;;;;4195766;28;20226;-77
2023/09/03 06:42:42;;;;;;;10.60;7.10;;;16.30;99.90;;;;;;4195968;28;20239;-77
2023/09/03 06:44:43;;;;;;;12.23;6.30;;;16.30;99.90;;;;;;4197561;28;20210;-77
2023/09/03 06:46:45;;;;;;;8.63;6.60;;;16.40;99.90;;;;;;4193740;28;20669;-77
2023/09/03 06:48:50;;;;;;;9.10;5.67;;;16.40;99.90;;;;;;4197024;28;20212;-77
2023/09/03 06:50:52;;;;;;;7.13;5.43;;;16.40;99.90;;;;;;4190420;28;20849;-78
2023/09/03 06:52:53;;;;;;;7.13;5.47;;;16.50;99.90;;;;;;4186877;28;20193;-78
2023/09/03 06:54:56;;;;;;;8.90;5.93;;;16.50;99.90;;;;;;4194071;28;20793;-77
2023/09/03 06:56:58;;;;;;;8.73;6.13;;;16.60;99.90;;;;;;4194616;28;20631;-77
2023/09/03 06:59:00;;;;;;;8.83;5.97;;;16.60;99.90;;;;;;4192892;28;20204;-76
2023/09/03 07:01:04;;;;;;;12.03;6.10;;;16.70;99.90;;;;;;4188484;28;20698;-76
2023/09/03 07:03:05;;;;;;;9.47;5.90;;;16.70;99.90;;;;;;4193574;28;20228;-76
2023/09/03 07:05:08;;;;;;;9.53;5.77;;;16.70;99.90;;;;;;4195630;28;20207;-76
2023/09/03 07:07:10;;;;;;;7.70;5.17;;;16.80;99.90;;;;;;4192009;28;20927;-76
2023/09/03 07:09:11;;;;;;;9.03;5.60;;;16.90;99.90;;;;;;4186982;28;20741;-76
2023/09/03 07:11:14;;;;;;;7.67;5.07;;;16.90;99.90;;;;;;4186435;28;20225;-76
2023/09/03 07:13:16;;;;;;;6.73;5.23;;;17.00;99.90;;;;;;4187046;28;20556;-76
2023/09/03 07:15:18;;;;;;;7.57;5.23;;;17.00;99.90;;;;;;4189637;28;20271;-76
2023/09/03 07:17:20;;;;;;;8.40;4.93;;;17.10;99.90;;;;;;4187840;28;20205;-76
2023/09/03 07:19:22;;;;;;;8.47;4.87;;;17.10;99.90;;;;;;4187655;28;20204;-76
2023/09/03 07:21:24;;;;;;;7.20;4.70;;;17.10;99.90;;;;;;4191280;28;20245;-76
2023/09/03 07:23:26;;;;;;;8.17;5.00;;;17.10;99.90;;;;;;4185933;28;20213;-77
2023/09/03 07:25:30;;;;;;;8.57;5.57;;;17.20;99.90;;;;;;4189300;28;20217;-77
2023/09/03 07:27:33;;;;;;;7.33;5.30;;;17.20;99.90;;;;;;4191494;28;20212;-76
2023/09/03 07:29:35;;;;;;;10.27;5.03;;;17.20;99.90;;;;;;4189521;28;20205;-76
2023/09/03 07:31:40;;;;;;;8.43;6.10;;;17.20;99.90;;;;;;4190883;28;20287;-76
2023/09/03 07:33:45;;;;;;;7.47;5.33;;;17.20;99.90;;;;;;4190269;28;20243;-76
2023/09/03 07:35:47;;;;;;;8.07;5.63;;;17.30;99.90;;;;;;4187829;28;20210;-76
2023/09/03 07:37:49;;;;;;;9.80;5.70;;;17.30;99.90;;;;;;4194402;28;20722;-77
2023/09/03 07:39:50;;;;;;;6.90;4.97;;;17.40;99.90;;;;;;4187467;28;20271;-78
2023/09/03 07:41:56;;;;;;;7.37;5.03;;;17.50;99.90;;;;;;4190340;28;20668;-77
2023/09/03 07:43:59;;;;;;;7.43;4.80;;;17.60;99.90;;;;;;4190029;28;20232;-77
2023/09/03 07:46:01;;;;;;;7.17;4.80;;;17.70;99.90;;;;;;4191733;28;20259;-78
2023/09/03 07:48:04;;;;;;;6.10;4.50;;;17.80;99.90;;;;;;4188491;28;20277;-78
2023/09/03 07:50:07;;;;;;;6.27;4.53;;;17.90;99.90;;;;;;4188544;28;20217;-78
2023/09/03 07:52:09;;;;;;;8.40;4.70;;;17.90;99.90;;;;;;4190463;28;20202;-78
2023/09/03 07:54:15;;;;;;;8.03;4.70;;;17.90;99.90;;;;;;4186455;28;20701;-77
2023/09/03 07:56:18;;;;;;;7.17;4.77;;;18.00;99.90;;;;;;4187940;28;20205;-76
2023/09/03 07:58:19;;;;;;;7.87;4.27;;;18.00;99.90;;;;;;4183292;28;20676;-76
2023/09/03 08:00:23;;;;;;;7.00;4.30;;;18.00;99.90;;;;;;4185446;28;20550;-76
2023/09/03 08:02:25;;;;;;;6.27;5.00;;;18.10;99.90;;;;;;4188049;28;20702;-76
2023/09/03 08:04:28;;;;;;;5.87;3.97;;;18.10;99.90;;;;;;4182454;28;20216;-76
2023/09/03 08:06:30;;;;;;;7.60;4.70;;;18.10;99.90;;;;;;4186668;28;21194;-77
2023/09/03 08:08:32;;;;;;;7.33;4.47;;;18.10;99.90;;;;;;4188176;28;20213;-78
2023/09/03 08:10:34;;;;;;;8.53;4.63;;;18.10;99.90;;;;;;4187664;28;20247;-78
2023/09/03 08:12:35;;;;;;;8.27;4.83;;;18.00;99.90;;;;;;4191392;28;20207;-78
2023/09/03 08:14:37;;;;;;;6.30;4.10;;;18.10;99.90;;;;;;4192959;28;20198;-78
2023/09/03 08:16:41;;;;;;;7.37;4.77;;;18.10;99.90;;;;;;4188109;28;20238;-78
2023/09/03 08:18:42;;;;;;;6.43;4.10;;;18.10;99.90;;;;;;4185058;28;20568;-76
2023/09/03 08:20:44;;;;;;;7.27;4.00;;;18.10;99.90;;;;;;4189954;28;20271;-77
2023/09/03 08:22:46;;;;;;;7.23;4.43;;;18.20;99.90;;;;;;4189787;28;20272;-78
2023/09/03 08:24:47;;;;;;;8.30;4.93;;;18.20;99.90;;;;;;4190797;28;20214;-77
2023/09/03 08:26:49;;;;;;;7.00;4.13;;;18.20;99.90;;;;;;4194720;28;20210;-77
2023/09/03 08:28:51;;;;;;;5.80;3.87;;;18.20;99.90;;;;;;4190832;28;20201;-77
2023/09/03 08:30:53;;;;;;;6.70;3.63;;;18.20;99.90;;;;;;4192760;28;20706;-77
2023/09/03 08:32:56;;;;;;;6.60;3.90;;;18.20;99.90;;;;;;4187824;28;20278;-77
2023/09/03 08:34:58;;;;;;;5.00;3.40;;;18.30;99.90;;;;;;4188259;28;20698;-77
2023/09/03 08:37:00;;;;;;;7.47;3.67;;;18.30;99.90;;;;;;4190750;28;20607;-77
2023/09/03 08:39:04;;;;;;;4.20;2.90;;;18.50;99.90;;;;;;4191689;28;20217;-77
2023/09/03 08:41:06;;;;;;;4.57;3.10;;;18.60;99.90;;;;;;4188878;28;20229;-78
2023/09/03 08:43:09;;;;;;;4.80;3.10;;;18.80;99.90;;;;;;4194891;28;20687;-78
2023/09/03 08:45:12;;;;;;;7.50;3.80;;;18.90;99.90;;;;;;4195521;28;20920;-78
2023/09/03 08:47:18;;;;;;;6.60;4.00;;;19.00;99.90;;;;;;4200031;28;20220;-77
2023/09/03 08:49:20;;;;;;;5.70;3.17;;;19.10;99.90;;;;;;4205182;28;20262;-77
2023/09/03 08:51:23;;;;;;;4.67;2.77;;;19.20;99.90;;;;;;4190461;28;20256;-77
2023/09/03 08:53:25;;;;;;;6.17;3.10;;;19.20;99.90;;;;;;4191150;28;20239;-77
2023/09/03 08:55:29;;;;;;;5.30;2.47;;;19.20;99.90;;;;;;4195928;28;20205;-77
2023/09/03 08:57:34;;;;;;;9.43;2.90;;;19.20;99.90;;;;;;4191092;28;20309;-77
2023/09/03 08:59:36;;;;;;;7.03;2.63;;;19.20;99.90;;;;;;4196898;28;20213;-77
2023/09/03 09:01:39;;;;;;;4.97;2.83;;;19.20;99.90;;;;;;4192216;28;20260;-77
2023/09/03 09:03:44;;;;;;;3.77;2.67;;;19.20;99.90;;;;;;4188552;28;20229;-77
2023/09/03 09:05:48;;;;;;;5.27;2.43;;;19.20;99.90;;;;;;4193458;28;20287;-77
2023/09/03 09:07:51;;;;;;;5.17;2.17;;;19.20;99.90;;;;;;4191481;28;20205;-77
2023/09/03 09:09:54;;;;;;;5.03;2.70;;;19.20;99.90;;;;;;4191092;28;20202;-77
2023/09/03 09:12:01;;;;;;;6.83;2.50;;;19.20;99.90;;;;;;4195154;28;20889;-77
2023/09/03 09:14:12;;;;;;;4.17;2.30;;;19.20;99.90;;;;;;4185591;28;20301;-77
2023/09/03 09:16:14;;;;;;;5.27;2.13;;;19.20;99.90;;;;;;4187913;28;20740;-77
2023/09/03 09:18:16;;;;;;;5.07;2.07;;;19.20;99.90;;;;;;4191012;28;20259;-77
2023/09/03 09:20:19;;;;;;;4.60;2.30;;;19.30;99.90;;;;;;4191452;28;20267;-77
2023/09/03 09:22:22;;;;;;;6.63;2.40;;;19.40;99.90;;;;;;4190684;28;20413;-77
2023/09/03 09:24:25;;;;;;;3.67;2.43;;;19.40;99.90;;;;;;4191706;28;20234;-77
2023/09/03 09:26:31;;;;;;;2.97;2.17;;;19.50;99.90;;;;;;4192917;28;20222;-76
2023/09/03 09:28:33;;;;;;;4.57;2.10;;;19.60;99.90;;;;;;4199174;28;20198;-76
2023/09/03 09:30:34;;;;;;;3.80;1.90;;;19.70;99.90;;;;;;4186441;28;20226;-76
2023/09/03 09:32:36;;;;;;;2.37;1.70;;;19.80;99.90;;;;;;4184871;28;20672;-77
2023/09/03 09:34:43;;;;;;;2.50;1.67;;;19.90;99.90;;;;;;4186814;28;20230;-76
2023/09/03 09:36:54;;;;;;;4.30;1.80;;;19.90;99.90;;;;;;4190283;28;20251;-77
2023/09/03 09:39:05;;;;;;;3.40;1.60;;;20.00;99.90;;;;;;4192484;28;20268;-77
2023/09/03 09:41:21;;;;;;;2.17;1.40;;;20.00;99.90;;;;;;4188381;28;20264;-77
2023/09/03 09:43:23;;;;;;;3.63;1.60;;;20.10;99.90;;;;;;4193479;28;20264;-76
2023/09/03 09:45:25;;;;;;;3.50;2.13;;;20.20;99.90;;;;;;4187357;28;20267;-77
2023/09/03 09:47:27;;;;;;;2.97;1.50;;;20.30;99.90;;;;;;4195942;28;20259;-77
2023/09/03 09:49:41;;;;;;;2.43;1.47;;;20.40;99.90;;;;;;4192568;28;20199;-77
2023/09/03 09:51:43;;;;;;;2.57;1.50;;;20.50;99.90;;;;;;4193148;28;20216;-77
2023/09/03 09:53:55;;;;;;;7.30;1.83;;;20.60;99.90;;;;;;4196370;28;20278;-77
2023/09/03 09:56:02;;;;;;;3.37;1.80;;;20.60;99.90;;;;;;4191508;28;20203;-77
2023/09/03 09:58:12;;;;;;;2.93;1.60;;;20.70;99.90;;;;;;4186475;28;20199;-77
2023/09/03 10:00:14;;;;;;;4.87;1.73;;;20.80;99.90;;;;;;4188194;28;20213;-76
2023/09/03 10:02:16;;;;;;;4.67;1.43;;;20.80;99.90;;;;;;4193351;28;20277;-77
2023/09/03 10:04:26;;;;;;;3.30;1.50;;;20.90;99.90;;;;;;4191597;28;20200;-76
2023/09/03 10:06:28;;;;;;;2.60;1.40;;;21.00;99.90;;;;;;4191247;28;20235;-77
2023/09/03 10:08:30;;;;;;;3.60;1.63;;;21.10;99.90;;;;;;4191680;28;20652;-77
2023/09/03 10:10:32;;;;;;;3.73;1.47;;;21.20;99.90;;;;;;4195468;28;20243;-77
2023/09/03 10:12:35;;;;;;;4.07;1.90;;;21.40;99.90;;;;;;4192533;28;20200;-76
2023/09/03 10:14:38;;;;;;;4.50;2.20;;;21.40;99.90;;;;;;4191451;28;20719;-76
2023/09/03 10:16:40;;;;;;;2.03;1.43;;;21.40;99.90;;;;;;4189837;28;20261;-76
2023/09/03 10:18:46;;;;;;;2.87;1.50;;;21.50;99.90;;;;;;4192967;28;20216;-77
2023/09/03 10:20:49;;;;;;;3.03;1.60;;;21.50;99.90;;;;;;4190947;28;20921;-78
2023/09/03 10:22:52;;;;;;;3.87;1.43;;;21.60;99.90;;;;;;4194363;28;20255;-77
2023/09/03 10:24:58;;;;;;;6.07;2.10;;;21.70;99.90;;;;;;4202132;28;20204;-78
2023/09/03 10:27:04;;;;;;;3.23;1.60;;;21.70;99.90;;;;;;4190891;28;20620;-78
2023/09/03 10:29:11;;;;;;;3.97;1.70;;;21.70;99.90;;;;;;4186006;28;20218;-77
2023/09/03 10:31:15;;;;;;;2.03;1.50;;;21.70;99.90;;;;;;4190076;28;20230;-76
2023/09/03 10:33:17;;;;;;;2.83;1.50;;;21.70;99.90;;;;;;4188948;28;20264;-76